Time;durP1;ratioP1;P1;durP2;ratioP2;P2;SDS_P1;SDS_P2;PMS_P1;PMS_P2;Temp;Humidity;BMP_temperature;BMP_pressure;BME280_temperature;BME280_humidity;BME280_pressure;Samples;Min_cycle;Max_cycle;Signal;HPM_P1;HPM_P2
2023/04/17 00:02:14;;;;;;;51.50;24.52;;;;;;;;;;6161542;23;20387;-84
2023/04/17 00:04:59;;;;;;;48.33;23.58;;;;;;;;;;6182129;23;20344;-84
2023/04/17 00:07:43;;;;;;;47.10;23.15;;;;;;;;;;6182166;23;20075;-84
2023/04/17 00:10:31;;;;;;;48.42;24.60;;;;;;;;;;6182790;23;20017;-84
2023/04/17 00:13:15;;;;;;;43.00;20.80;;;;;;;;;;6182098;23;20020;-83
2023/04/17 00:16:00;;;;;;;42.58;21.85;;;;;;;;;;6183608;23;20072;-84
2023/04/17 00:18:45;;;;;;;52.22;24.10;;;;;;;;;;6181924;23;20020;-84
2023/04/17 00:21:30;;;;;;;45.85;23.33;;;;;;;;;;6182576;23;20031;-84
2023/04/17 00:24:15;;;;;;;48.25;23.55;;;;;;;;;;6182945;23;20040;-84
2023/04/17 00:27:00;;;;;;;50.47;23.55;;;;;;;;;;6161197;23;20028;-84
2023/04/17 00:29:45;;;;;;;50.83;24.33;;;;;;;;;;6182893;23;20455;-84
2023/04/17 00:32:29;;;;;;;53.00;24.05;;;;;;;;;;6182665;23;20019;-84
2023/04/17 00:35:14;;;;;;;50.60;23.90;;;;;;;;;;6183336;23;20064;-85
2023/04/17 00:37:59;;;;;;;47.30;24.90;;;;;;;;;;6183313;23;20040;-85
2023/04/17 00:40:47;;;;;;;58.03;25.70;;;;;;;;;;6160624;23;20848;-84
2023/04/17 00:43:32;;;;;;;52.53;25.30;;;;;;;;;;6182547;23;20016;-84
2023/04/17 00:46:16;;;;;;;56.72;26.33;;;;;;;;;;6183202;23;20100;-84
2023/04/17 00:49:01;;;;;;;50.50;25.98;;;;;;;;;;6161290;23;20423;-84
2023/04/17 00:51:46;;;;;;;53.08;26.83;;;;;;;;;;6181348;23;20019;-84
2023/04/17 00:54:31;;;;;;;56.28;25.75;;;;;;;;;;6182746;23;20020;-84
2023/04/17 00:57:16;;;;;;;61.30;28.45;;;;;;;;;;6182075;23;20016;-84
2023/04/17 01:00:00;;;;;;;59.03;27.05;;;;;;;;;;6183198;23;20032;-84
2023/04/17 01:02:45;;;;;;;54.10;27.13;;;;;;;;;;6181423;23;20590;-84
2023/04/17 01:05:30;;;;;;;62.95;28.20;;;;;;;;;;6181128;23;20067;-85
2023/04/17 01:08:15;;;;;;;56.42;27.92;;;;;;;;;;6183288;23;20067;-85
2023/04/17 01:10:59;;;;;;;54.60;27.10;;;;;;;;;;6182045;23;20012;-84
2023/04/17 01:13:47;;;;;;;59.13;28.52;;;;;;;;;;6181272;23;20016;-84
2023/04/17 01:16:32;;;;;;;56.92;27.85;;;;;;;;;;6182437;23;20071;-84
2023/04/17 01:19:18;;;;;;;54.50;26.52;;;;;;;;;;6181779;23;20055;-84
2023/04/17 01:22:03;;;;;;;60.70;29.67;;;;;;;;;;6181942;23;20474;-84
2023/04/17 01:24:47;;;;;;;66.28;29.48;;;;;;;;;;6181260;23;20023;-84
2023/04/17 01:27:34;;;;;;;59.20;29.05;;;;;;;;;;6181156;23;20340;-84
2023/04/17 01:30:18;;;;;;;66.57;30.05;;;;;;;;;;6183052;23;20109;-83
2023/04/17 01:33:03;;;;;;;66.28;30.42;;;;;;;;;;6182833;23;20052;-83
2023/04/17 01:35:48;;;;;;;68.72;28.58;;;;;;;;;;6181330;23;20032;-84
2023/04/17 01:38:32;;;;;;;59.00;28.95;;;;;;;;;;6184311;23;20016;-84
2023/04/17 01:41:17;;;;;;;60.92;28.40;;;;;;;;;;6184826;23;20079;-84
2023/04/17 01:44:01;;;;;;;65.78;31.50;;;;;;;;;;6183590;23;20482;-85
2023/04/17 01:46:46;;;;;;;58.28;29.65;;;;;;;;;;6182780;23;20387;-84
2023/04/17 01:49:31;;;;;;;62.00;27.83;;;;;;;;;;6182937;23;20020;-87
2023/04/17 01:52:16;;;;;;;61.15;29.52;;;;;;;;;;6184675;23;20160;-84
2023/04/17 01:55:01;;;;;;;64.35;29.10;;;;;;;;;;6184735;23;20015;-83
2023/04/17 01:57:46;;;;;;;51.35;25.48;;;;;;;;;;6182967;23;20405;-83
2023/04/17 02:00:31;;;;;;;62.38;27.52;;;;;;;;;;6183238;23;20455;-88
2023/04/17 02:03:16;;;;;;;68.93;28.88;;;;;;;;;;6184686;23;20067;-84
2023/04/17 02:06:00;;;;;;;67.93;29.85;;;;;;;;;;6162497;23;20055;-83
2023/04/17 02:08:45;;;;;;;65.93;29.02;;;;;;;;;;6182712;23;20023;-84
2023/04/17 02:11:30;;;;;;;62.42;28.65;;;;;;;;;;6184685;23;20035;-84
2023/04/17 02:14:15;;;;;;;63.10;28.60;;;;;;;;;;6182844;23;20040;-85
2023/04/17 02:17:00;;;;;;;65.07;29.00;;;;;;;;;;6183071;23;20397;-84
2023/04/17 02:19:45;;;;;;;58.53;28.52;;;;;;;;;;6183638;23;20510;-85
2023/04/17 02:22:29;;;;;;;63.65;27.48;;;;;;;;;;6184329;23;20055;-85
2023/04/17 02:25:14;;;;;;;59.47;29.60;;;;;;;;;;6183303;23;20349;-85
2023/04/17 02:27:59;;;;;;;63.83;28.58;;;;;;;;;;6183874;23;20109;-85
2023/04/17 02:30:44;;;;;;;59.28;27.73;;;;;;;;;;6182677;23;20144;-84
2023/04/17 02:33:29;;;;;;;64.53;27.77;;;;;;;;;;6184035;23;20427;-85
2023/04/17 02:36:13;;;;;;;60.00;28.48;;;;;;;;;;6183107;23;20015;-84
2023/04/17 02:38:57;;;;;;;60.30;28.65;;;;;;;;;;6182539;23;20099;-85
2023/04/17 02:41:42;;;;;;;70.88;31.42;;;;;;;;;;6182429;23;20028;-84
2023/04/17 02:44:27;;;;;;;73.90;30.88;;;;;;;;;;6183007;23;20016;-84
2023/04/17 02:47:12;;;;;;;61.92;27.70;;;;;;;;;;6182910;23;20024;-84
2023/04/17 02:49:58;;;;;;;67.60;29.48;;;;;;;;;;6183359;23;20387;-84
2023/04/17 02:52:43;;;;;;;80.45;31.23;;;;;;;;;;6182392;23;20071;-84
2023/04/17 02:55:27;;;;;;;79.20;30.38;;;;;;;;;;6182923;23;20047;-84
2023/04/17 02:58:12;;;;;;;81.90;31.35;;;;;;;;;;6184258;23;20016;-84
2023/04/17 03:01:03;;;;;;;79.15;30.77;;;;;;;;;;6182134;23;20380;-84
2023/04/17 03:03:48;;;;;;;87.03;29.95;;;;;;;;;;6183253;23;20012;-84
2023/04/17 03:06:32;;;;;;;84.18;31.27;;;;;;;;;;6182836;23;20031;-83
2023/04/17 03:09:19;;;;;;;71.30;30.00;;;;;;;;;;6182489;23;20016;-84
2023/04/17 03:12:04;;;;;;;70.22;30.10;;;;;;;;;;6183532;23;20490;-83
2023/04/17 03:14:49;;;;;;;84.68;30.95;;;;;;;;;;6182205;23;20436;-84
2023/04/17 03:17:34;;;;;;;82.05;31.20;;;;;;;;;;6182738;23;20063;-84
2023/04/17 03:20:18;;;;;;;76.20;28.88;;;;;;;;;;6183649;23;20028;-83
2023/04/17 03:23:03;;;;;;;93.07;29.67;;;;;;;;;;6161001;23;20024;-84
2023/04/17 03:25:48;;;;;;;78.03;29.83;;;;;;;;;;6181937;23;20067;-84
2023/04/17 03:28:32;;;;;;;84.95;29.45;;;;;;;;;;6182605;23;20028;-83
2023/04/17 03:31:17;;;;;;;86.90;30.50;;;;;;;;;;6183801;23;20016;-85
2023/04/17 03:34:02;;;;;;;82.00;29.45;;;;;;;;;;6183452;23;20024;-83
2023/04/17 03:36:47;;;;;;;64.38;27.05;;;;;;;;;;6181847;23;20020;-84
2023/04/17 03:39:32;;;;;;;76.03;27.67;;;;;;;;;;6183802;23;20332;-84
2023/04/17 03:42:16;;;;;;;65.72;26.08;;;;;;;;;;6161471;23;20064;-83
2023/04/17 03:45:03;;;;;;;72.25;27.10;;;;;;;;;;6160536;23;20027;-84
2023/04/17 03:47:47;;;;;;;70.32;26.08;;;;;;;;;;6183155;23;20132;-84
2023/04/17 03:50:32;;;;;;;77.40;27.83;;;;;;;;;;6182389;23;20043;-84
2023/04/17 03:53:17;;;;;;;61.75;25.75;;;;;;;;;;6183625;23;20016;-83
2023/04/17 03:56:01;;;;;;;76.03;26.85;;;;;;;;;;6181821;23;20450;-84
2023/04/17 03:58:46;;;;;;;77.80;26.98;;;;;;;;;;6181977;23;20092;-88
2023/04/17 04:01:31;;;;;;;69.47;28.40;;;;;;;;;;6183640;23;20016;-84
2023/04/17 04:04:16;;;;;;;63.85;26.95;;;;;;;;;;6182274;23;20024;-83
2023/04/17 04:07:00;;;;;;;73.72;27.52;;;;;;;;;;6182903;23;20023;-84
2023/04/17 04:09:45;;;;;;;68.40;27.88;;;;;;;;;;6183684;23;20124;-84
2023/04/17 04:12:30;;;;;;;60.58;26.80;;;;;;;;;;6183394;23;20024;-85
2023/04/17 04:15:14;;;;;;;75.90;28.85;;;;;;;;;;6183632;23;20404;-85
2023/04/17 04:17:59;;;;;;;87.07;26.90;;;;;;;;;;6181276;23;20020;-84
2023/04/17 04:20:44;;;;;;;93.22;27.95;;;;;;;;;;6161283;23;20027;-83
2023/04/17 04:23:29;;;;;;;57.63;26.17;;;;;;;;;;6183429;23;20106;-83
2023/04/17 04:26:15;;;;;;;62.85;25.15;;;;;;;;;;6182831;23;20016;-83
2023/04/17 04:29:00;;;;;;;71.60;27.00;;;;;;;;;;6182845;23;20107;-84
2023/04/17 04:31:49;;;;;;;70.50;25.35;;;;;;;;;;6183398;23;20250;-83
2023/04/17 04:34:35;;;;;;;87.32;26.52;;;;;;;;;;6182098;23;20066;-83
2023/04/17 04:37:20;;;;;;;79.88;26.80;;;;;;;;;;6183421;23;20331;-83
2023/04/17 04:40:09;;;;;;;97.95;26.77;;;;;;;;;;6181290;23;20351;-84
2023/04/17 04:42:54;;;;;;;100.93;28.10;;;;;;;;;;6181497;23;20020;-84
2023/04/17 04:45:39;;;;;;;91.95;28.20;;;;;;;;;;6183332;23;20016;-83
2023/04/17 04:48:24;;;;;;;89.93;25.90;;;;;;;;;;6183418;23;20399;-83
2023/04/17 04:51:08;;;;;;;85.47;29.05;;;;;;;;;;6182656;23;20012;-84
2023/04/17 04:53:53;;;;;;;79.65;28.52;;;;;;;;;;6183193;23;20019;-88
2023/04/17 04:56:37;;;;;;;69.90;28.33;;;;;;;;;;6181947;23;20062;-84
2023/04/17 04:59:22;;;;;;;66.97;26.88;;;;;;;;;;6181624;23;20059;-82
2023/04/17 05:02:07;;;;;;;72.13;27.05;;;;;;;;;;6181218;23;20101;-82
2023/04/17 05:04:51;;;;;;;75.40;29.80;;;;;;;;;;6183159;23;20059;-83
2023/04/17 05:07:36;;;;;;;69.72;28.25;;;;;;;;;;6181944;23;20079;-82
2023/04/17 05:10:20;;;;;;;70.88;27.20;;;;;;;;;;6160296;23;20016;-83
2023/04/17 05:13:05;;;;;;;79.25;29.98;;;;;;;;;;6183002;23;20019;-82
2023/04/17 05:15:50;;;;;;;66.55;27.92;;;;;;;;;;6185066;23;20092;-82
2023/04/17 05:18:35;;;;;;;77.97;30.23;;;;;;;;;;6183581;23;20213;-84
2023/04/17 05:21:20;;;;;;;70.57;27.88;;;;;;;;;;6182834;23;20076;-83
2023/04/17 05:24:04;;;;;;;74.00;28.23;;;;;;;;;;6182903;23;20124;-83
2023/04/17 05:26:49;;;;;;;66.95;28.25;;;;;;;;;;6183858;23;20116;-84
2023/04/17 05:29:34;;;;;;;80.25;27.83;;;;;;;;;;6184961;23;20063;-84
2023/04/17 05:32:18;;;;;;;72.03;29.33;;;;;;;;;;6183027;23;20020;-83
2023/04/17 05:35:03;;;;;;;71.22;27.45;;;;;;;;;;6184162;23;20023;-82
2023/04/17 05:37:48;;;;;;;85.50;27.58;;;;;;;;;;6183758;23;20019;-82
2023/04/17 05:40:32;;;;;;;70.40;27.08;;;;;;;;;;6183787;23;20388;-84
2023/04/17 05:43:17;;;;;;;100.32;29.70;;;;;;;;;;6182975;23;20016;-85
2023/04/17 05:46:02;;;;;;;81.35;27.05;;;;;;;;;;6182953;23;20023;-87
2023/04/17 05:48:46;;;;;;;86.00;30.23;;;;;;;;;;6184775;23;20064;-85
2023/04/17 05:51:31;;;;;;;79.20;28.73;;;;;;;;;;6184755;23;20097;-86
2023/04/17 05:54:15;;;;;;;67.63;27.15;;;;;;;;;;6182699;23;20028;-85
2023/04/17 05:57:02;;;;;;;66.28;26.08;;;;;;;;;;6184793;23;20019;-86
2023/04/17 05:59:47;;;;;;;62.67;26.25;;;;;;;;;;6162300;23;20020;-84
2023/04/17 06:02:32;;;;;;;61.83;25.55;;;;;;;;;;6179727;23;20063;-83
2023/04/17 06:05:17;;;;;;;63.53;24.38;;;;;;;;;;6182895;23;20028;-83
2023/04/17 06:08:02;;;;;;;66.93;26.08;;;;;;;;;;6183367;23;20462;-85
2023/04/17 06:10:48;;;;;;;72.78;27.55;;;;;;;;;;6182272;23;20016;-83
2023/04/17 06:13:33;;;;;;;65.60;26.75;;;;;;;;;;6162045;23;20016;-83
2023/04/17 06:16:18;;;;;;;63.13;25.77;;;;;;;;;;6181408;23;20380;-82
2023/04/17 06:19:02;;;;;;;80.20;28.27;;;;;;;;;;6181883;23;20019;-87
2023/04/17 06:21:46;;;;;;;71.00;29.05;;;;;;;;;;6182148;23;20028;-85
2023/04/17 06:24:31;;;;;;;65.50;27.65;;;;;;;;;;6182009;23;20399;-85
2023/04/17 06:27:16;;;;;;;67.30;27.35;;;;;;;;;;6181938;23;20056;-86
2023/04/17 06:30:00;;;;;;;68.50;28.10;;;;;;;;;;6182557;23;20041;-85
2023/04/17 06:32:44;;;;;;;62.13;28.35;;;;;;;;;;6162368;23;20036;-85
2023/04/17 06:35:29;;;;;;;55.75;26.30;;;;;;;;;;6181778;23;20024;-86
2023/04/17 06:38:14;;;;;;;60.53;26.80;;;;;;;;;;6181779;23;20036;-85
2023/04/17 06:40:59;;;;;;;56.47;26.15;;;;;;;;;;6182520;23;20543;-85
2023/04/17 06:43:43;;;;;;;57.50;29.50;;;;;;;;;;6183806;23;20092;-86
2023/04/17 06:46:28;;;;;;;55.75;28.63;;;;;;;;;;6181375;23;20091;-88
2023/04/17 06:49:12;;;;;;;56.15;29.20;;;;;;;;;;6181135;23;20051;-86
2023/04/17 06:52:00;;;;;;;55.35;28.52;;;;;;;;;;6182320;23;20466;-84
2023/04/17 06:54:45;;;;;;;60.67;28.52;;;;;;;;;;6179293;23;20114;-85
2023/04/17 06:57:29;;;;;;;63.58;30.27;;;;;;;;;;6181528;23;20085;-85
2023/04/17 07:00:15;;;;;;;58.80;29.58;;;;;;;;;;6182523;23;20019;-83
2023/04/17 07:03:00;;;;;;;57.72;27.70;;;;;;;;;;6183022;23;20519;-83
2023/04/17 07:05:49;;;;;;;56.92;28.85;;;;;;;;;;6182304;23;20320;-84
2023/04/17 07:08:34;;;;;;;60.00;28.98;;;;;;;;;;6180582;23;20148;-84
2023/04/17 07:11:19;;;;;;;64.72;29.92;;;;;;;;;;6160806;23;20092;-83
2023/04/17 07:14:05;;;;;;;61.13;29.55;;;;;;;;;;6181773;23;20049;-84
2023/04/17 07:16:49;;;;;;;59.22;30.05;;;;;;;;;;6161254;23;20019;-83
2023/04/17 07:19:34;;;;;;;58.15;30.42;;;;;;;;;;6181935;23;20055;-83
2023/04/17 07:22:19;;;;;;;55.45;28.92;;;;;;;;;;6160134;23;20031;-84
2023/04/17 07:25:04;;;;;;;48.80;27.38;;;;;;;;;;6159795;23;20047;-83
2023/04/17 07:27:50;;;;;;;55.05;29.90;;;;;;;;;;6138921;23;20162;-84
2023/04/17 07:30:34;;;;;;;51.13;27.98;;;;;;;;;;6159527;23;20020;-84
2023/04/17 07:33:19;;;;;;;53.63;28.92;;;;;;;;;;6159244;23;20020;-85
2023/04/17 07:36:04;;;;;;;49.75;27.63;;;;;;;;;;6159163;23;20020;-84
2023/04/17 07:38:49;;;;;;;51.28;28.10;;;;;;;;;;6181788;23;20024;-83
2023/04/17 07:41:34;;;;;;;49.80;28.05;;;;;;;;;;6158835;23;20083;-84
2023/04/17 07:44:18;;;;;;;51.75;27.42;;;;;;;;;;6181605;23;20051;-84
2023/04/17 07:47:03;;;;;;;49.50;28.23;;;;;;;;;;6159181;23;20067;-84
2023/04/17 07:49:47;;;;;;;46.95;27.35;;;;;;;;;;6182273;23;20454;-83
2023/04/17 07:52:32;;;;;;;46.88;26.00;;;;;;;;;;6181507;23;20056;-87
2023/04/17 07:55:17;;;;;;;42.35;25.17;;;;;;;;;;6181487;23;20351;-87
2023/04/17 07:58:02;;;;;;;47.08;23.95;;;;;;;;;;6159363;23;20085;-84
2023/04/17 08:00:47;;;;;;;45.08;25.48;;;;;;;;;;6159272;23;20109;-84
2023/04/17 08:03:32;;;;;;;43.97;24.83;;;;;;;;;;6137685;23;20024;-84
2023/04/17 08:06:16;;;;;;;43.15;24.73;;;;;;;;;;6159558;23;20024;-85
2023/04/17 08:09:01;;;;;;;43.13;25.23;;;;;;;;;;6159920;23;20444;-84
2023/04/17 08:11:46;;;;;;;43.25;25.83;;;;;;;;;;6159570;23;20031;-84
2023/04/17 08:14:31;;;;;;;42.25;24.95;;;;;;;;;;6158205;23;20059;-83
2023/04/17 08:17:22;;;;;;;44.58;24.80;;;;;;;;;;6159482;23;20063;-85
2023/04/17 08:20:07;;;;;;;41.33;25.25;;;;;;;;;;6160977;23;20347;-85
2023/04/17 08:22:52;;;;;;;38.50;22.92;;;;;;;;;;6181463;23;20096;-84
2023/04/17 08:25:36;;;;;;;35.53;22.02;;;;;;;;;;6158332;23;20027;-85
2023/04/17 08:28:21;;;;;;;32.03;21.80;;;;;;;;;;6181228;23;20691;-86
2023/04/17 08:31:07;;;;;;;37.05;21.33;;;;;;;;;;6181332;23;20048;-84
2023/04/17 08:33:51;;;;;;;34.95;22.10;;;;;;;;;;6181623;23;20044;-84
2023/04/17 08:36:36;;;;;;;33.13;22.13;;;;;;;;;;6179922;23;20437;-83
2023/04/17 08:39:21;;;;;;;33.05;22.13;;;;;;;;;;6179903;23;20016;-87
2023/04/17 08:42:07;;;;;;;30.08;20.52;;;;;;;;;;6180602;23;20088;-84
2023/04/17 08:44:52;;;;;;;33.55;21.73;;;;;;;;;;6181418;23;20391;-84
2023/04/17 08:47:41;;;;;;;30.70;20.25;;;;;;;;;;6181677;23;20741;-84
2023/04/17 08:50:25;;;;;;;32.42;20.55;;;;;;;;;;6182924;23;20073;-84
2023/04/17 08:53:10;;;;;;;31.58;20.63;;;;;;;;;;6181971;23;20020;-85
2023/04/17 08:55:56;;;;;;;25.83;18.75;;;;;;;;;;6183442;23;20044;-85
2023/04/17 08:58:40;;;;;;;26.10;18.52;;;;;;;;;;6181554;23;20035;-85
2023/04/17 09:01:28;;;;;;;27.00;18.10;;;;;;;;;;6183229;23;20444;-84
2023/04/17 09:04:33;;;;;;;25.08;18.42;;;;;;;;;;6183829;23;20023;-85
2023/04/17 09:07:27;;;;;;;;;;;12.80;99.90;;;;;;6186418;23;20019;-84
2023/04/17 09:10:11;;;;;;;26.20;16.77;;;;;;;;;;6181997;23;19911;-89
2023/04/17 09:13:00;;;;;;;23.33;16.88;;;;;;;;;;6182116;23;20023;-85
2023/04/17 09:15:45;;;;;;;25.10;17.20;;;;;;;;;;6181353;23;20119;-83
2023/04/17 09:18:30;;;;;;;26.48;16.52;;;;;;;;;;6183547;23;20051;-84
2023/04/17 09:21:19;;;;;;;26.40;16.77;;;;;;;;;;6182850;23;20031;-85
2023/04/17 09:24:05;;;;;;;23.98;16.67;;;;;;;;;;6183522;23;20024;-85
2023/04/17 09:26:50;;;;;;;28.98;17.15;;;;;;;;;;6182429;23;20451;-84
2023/04/17 09:29:54;;;;;;;26.92;16.00;;;;;;;;;;6182275;23;20024;-84
2023/04/17 09:32:39;;;;;;;19.02;14.68;;;;;;;;;;6183504;23;20063;-84
2023/04/17 09:35:24;;;;;;;23.30;14.90;;;;;;;;;;6182953;23;20399;-83
2023/04/17 09:38:10;;;;;;;22.13;15.50;;;;;;;;;;6181452;23;20016;-84
2023/04/17 09:40:54;;;;;;;19.90;15.52;;;;;;;;;;6181585;23;20064;-84
2023/04/17 09:43:42;;;;;;;22.35;15.07;;;;;;;;;;6181555;23;20020;-83
2023/04/17 09:46:30;;;;;;;23.05;14.30;;;;;;;;;;6181524;23;20024;-86
2023/04/17 09:49:20;;;;;;;20.23;14.07;;;;;;;;;;6182281;23;20040;-84
2023/04/17 09:52:06;;;;;;;18.58;14.20;;;;;;;;;;6181047;23;20072;-84
2023/04/17 09:54:52;;;;;;;22.10;14.63;;;;;;;;;;6182347;23;20094;-84
2023/04/17 09:57:38;;;;;;;17.65;13.07;;;;;;;;;;6182395;23;20340;-83
2023/04/17 10:00:25;;;;;;;18.60;13.82;;;;;;;;;;6181832;23;20016;-84
2023/04/17 10:03:13;;;;;;;17.13;12.57;;;;;;;;;;6183878;23;20016;-84
2023/04/17 10:05:58;;;;;;;19.10;12.25;;;;;;;;;;6181982;23;20048;-84
2023/04/17 10:08:43;;;;;;;18.92;13.52;;;;;;;;;;6182453;23;20020;-86
2023/04/17 10:11:30;;;;;;;19.25;13.57;;;;;;;;;;6180901;23;20024;-84
2023/04/17 10:14:24;;;;;;;17.63;12.27;;;;;;;;;;6182874;23;20439;-84
2023/04/17 10:17:33;;;;;;;20.63;12.63;;;;;;;;;;6181693;23;20092;-84
2023/04/17 10:20:18;;;;;;;19.40;13.27;;;;;;;;;;6182729;23;20015;-84
2023/04/17 10:23:23;;;;;;;18.83;12.27;;;;;;;;;;6181407;23;20019;-84
2023/04/17 10:26:29;;;;;;;17.73;12.60;;;;;;;;;;6181796;23;20020;-85
2023/04/17 10:29:14;;;;;;;20.48;11.55;;;;;;;;;;6181330;23;20020;-84
2023/04/17 10:32:10;;;;;;;20.58;13.88;;;;;;;;;;6182641;23;20015;-84
2023/04/17 10:34:58;;;;;;;16.00;11.90;;;;;;;;;;6180815;23;20052;-84
2023/04/17 10:37:49;;;;;;;17.38;12.02;;;;;;;;;;6180830;23;20048;-84
2023/04/17 10:40:35;;;;;;;17.65;12.20;;;;;;;;;;6182377;23;20027;-87
2023/04/17 10:43:21;;;;;;;15.05;11.18;;;;;;;;;;6182438;23;20012;-83
2023/04/17 10:46:11;;;;;;;16.73;12.48;;;;;;;;;;6161203;23;20462;-84
2023/04/17 10:48:55;;;;;;;18.30;12.32;;;;;;;;;;6182118;23;20028;-85
2023/04/17 10:51:40;;;;;;;16.38;11.43;;;;;;;;;;6159613;23;20019;-84
2023/04/17 10:54:25;;;;;;;19.33;11.85;;;;;;;;;;6182026;23;20016;-83
2023/04/17 10:57:10;;;;;;;14.23;10.95;;;;;;;;;;6183438;23;20015;-84
2023/04/17 11:00:11;;;;;;;15.70;10.82;;;;;;;;;;6180206;23;20086;-82
2023/04/17 11:02:55;;;;;;;14.27;9.77;;;;;;;;;;6181513;23;20028;-82
2023/04/17 11:05:44;;;;;;;14.30;10.27;;;;;;;;;;6181982;23;20079;-84
2023/04/17 11:08:29;;;;;;;16.10;10.35;;;;;;;;;;6182143;23;20023;-83
2023/04/17 11:11:16;;;;;;;14.68;11.07;;;;;;;;;;6181212;23;20021;-84
2023/04/17 11:14:04;;;;;;;20.40;11.52;;;;;;;;;;6180877;23;20110;-83
2023/04/17 11:16:50;;;;;;;15.27;11.55;;;;;;;;;;6180421;23;20601;-84
2023/04/17 11:19:35;;;;;;;15.75;10.70;;;;;;;;;;6182131;23;20083;-86
2023/04/17 11:22:20;;;;;;;16.65;11.80;;;;;;;;;;6182004;23;20028;-84
2023/04/17 11:25:05;;;;;;;15.90;10.23;;;;;;;;;;6182393;23;20024;-84
2023/04/17 11:27:50;;;;;;;16.08;11.77;;;;;;;;;;6180252;23;20024;-84
2023/04/17 11:30:39;;;;;;;12.13;10.23;;;;;;;;;;6181083;23;20020;-85
2023/04/17 11:33:24;;;;;;;15.20;10.57;;;;;;;;;;6181010;23;20012;-84
2023/04/17 11:36:09;;;;;;;16.33;10.23;;;;;;;;;;6180885;23;20463;-84
2023/04/17 11:38:56;;;;;;;16.25;10.25;;;;;;;;;;6180688;23;20016;-83
2023/04/17 11:41:41;;;;;;;13.95;10.20;;;;;;;;;;6180274;23;20067;-85
2023/04/17 11:44:26;;;;;;;15.43;11.02;;;;;;;;;;6180867;23;20027;-84
2023/04/17 11:47:10;;;;;;;18.98;11.20;;;;;;;;;;6180803;23;20047;-85
2023/04/17 11:49:56;;;;;;;15.02;11.18;;;;;;;;;;6180891;23;20341;-83
2023/04/17 11:52:41;;;;;;;15.98;10.45;;;;;;;;;;6181266;23;20020;-86
2023/04/17 11:55:32;;;;;;;13.80;10.18;;;;;;;;;;6179490;23;20024;-83
2023/04/17 11:58:16;;;;;;;15.45;11.15;;;;;;;;;;6179841;23;20070;-83
2023/04/17 12:01:07;;;;;;;15.35;10.68;;;;;;;;;;6174833;23;20044;-84
2023/04/17 12:03:56;;;;;;;16.75;10.75;;;;;;;;;;6178820;23;20392;-83
2023/04/17 12:06:40;;;;;;;16.05;10.20;;;;;;;;;;6179446;23;20032;-86
2023/04/17 12:09:30;;;;;;;18.13;10.85;;;;;;;;;;6179652;23;20156;-84
2023/04/17 12:12:15;;;;;;;15.48;10.15;;;;;;;;;;6179064;23;20136;-87
2023/04/17 12:14:59;;;;;;;16.95;10.93;;;;;;;;;;6179171;23;20152;-85
2023/04/17 12:17:44;;;;;;;18.77;12.35;;;;;;;;;;6179346;23;20012;-85
2023/04/17 12:20:29;;;;;;;17.67;10.85;;;;;;;;;;6179500;23;20505;-83
2023/04/17 12:23:13;;;;;;;15.30;10.40;;;;;;;;;;6158600;23;20016;-84
2023/04/17 12:25:58;;;;;;;16.13;10.75;;;;;;;;;;6178248;23;20468;-84
2023/04/17 12:28:43;;;;;;;14.95;10.57;;;;;;;;;;6158682;23;20023;-87
2023/04/17 12:31:28;;;;;;;17.85;10.25;;;;;;;;;;6178400;23;20103;-84
2023/04/17 12:34:15;;;;;;;18.35;10.43;;;;;;;;;;6159325;23;20044;-87
2023/04/17 12:37:02;;;;;;;16.50;12.18;;;;;;;;;;6178822;23;20017;-88
2023/04/17 12:39:47;;;;;;;14.10;10.63;;;;;;;;;;6156793;23;20499;-84
2023/04/17 12:42:31;;;;;;;13.88;10.02;;;;;;;;;;6179987;23;20363;-85
2023/04/17 12:45:16;;;;;;;14.55;10.75;;;;;;;;;;6179186;23;20020;-85
2023/04/17 12:48:01;;;;;;;16.52;11.07;;;;;;;;;;6176276;23;20044;-86
2023/04/17 12:50:46;;;;;;;15.95;10.93;;;;;;;;;;6154878;23;20943;-87
2023/04/17 12:53:30;;;;;;;17.65;10.55;;;;;;;;;;6179696;23;20045;-85
2023/04/17 12:56:15;;;;;;;17.05;11.55;;;;;;;;;;6181548;23;20067;-83
2023/04/17 12:58:59;;;;;;;17.98;11.75;;;;;;;;;;6181102;23;20036;-83
2023/04/17 13:01:44;;;;;;;15.27;11.90;;;;;;;;;;6158301;23;20016;-87
2023/04/17 13:04:29;;;;;;;25.67;11.65;;;;;;;;;;6180161;23;20027;-84
2023/04/17 13:07:13;;;;;;;19.35;10.77;;;;;;;;;;6156478;23;20108;-84
2023/04/17 13:09:58;;;;;;;14.73;10.65;;;;;;;;;;6176194;23;20254;-85
2023/04/17 13:12:43;;;;;;;16.10;10.60;;;;;;;;;;6177316;23;20095;-84
2023/04/17 13:15:27;;;;;;;14.27;9.98;;;;;;;;;;6155644;23;20019;-84
2023/04/17 13:18:12;;;;;;;13.10;8.63;;;;;;;;;;6176573;23;20380;-83
2023/04/17 13:20:57;;;;;;;11.88;9.15;;;;;;;;;;6155243;23;20456;-86
2023/04/17 13:23:41;;;;;;;16.90;9.80;;;;;;;;;;6176701;23;20139;-84
2023/04/17 13:26:26;;;;;;;16.02;9.82;;;;;;;;;;6176701;23;20032;-83
2023/04/17 13:29:10;;;;;;;14.30;9.13;;;;;;;;;;6176847;23;20507;-86
2023/04/17 13:31:55;;;;;;;16.95;10.27;;;;;;;;;;6174969;23;20633;-84
2023/04/17 13:34:40;;;;;;;16.85;10.85;;;;;;;;;;6181266;23;20474;-83
2023/04/17 13:37:25;;;;;;;14.88;10.27;;;;;;;;;;6161867;23;20024;-84
2023/04/17 13:40:09;;;;;;;13.63;9.82;;;;;;;;;;6182350;23;20023;-84
2023/04/17 13:42:54;;;;;;;15.10;9.75;;;;;;;;;;6179186;23;20055;-84
2023/04/17 13:45:38;;;;;;;19.92;9.52;;;;;;;;;;6178958;23;20451;-83
2023/04/17 13:48:23;;;;;;;18.42;9.95;;;;;;;;;;6178830;23;20024;-86
2023/04/17 13:51:08;;;;;;;15.25;8.90;;;;;;;;;;6177761;23;20024;-83
2023/04/17 13:53:53;;;;;;;16.40;10.15;;;;;;;;;;6179147;23;20020;-84
2023/04/17 13:56:38;;;;;;;15.85;9.15;;;;;;;;;;6176973;23;20459;-84
2023/04/17 13:59:23;;;;;;;12.95;9.50;;;;;;;;;;6178082;23;20016;-83
2023/04/17 14:02:08;;;;;;;12.02;9.50;;;;;;;;;;6176960;23;20040;-86
2023/04/17 14:04:52;;;;;;;14.13;10.20;;;;;;;;;;6177464;23;20060;-84
2023/04/17 14:07:37;;;;;;;12.35;9.18;;;;;;;;;;6178940;23;20103;-84
2023/04/17 14:10:21;;;;;;;16.25;9.40;;;;;;;;;;6177924;23;20024;-84
2023/04/17 14:13:06;;;;;;;14.65;9.80;;;;;;;;;;6176044;23;20090;-85
2023/04/17 14:15:54;;;;;;;13.10;8.75;;;;;;;;;;6178058;23;20502;-84
2023/04/17 14:18:40;;;;;;;13.10;8.55;;;;;;;;;;6182514;23;20063;-86
2023/04/17 14:21:26;;;;;;;12.40;8.35;;;;;;;;;;6183142;23;20068;-83
2023/04/17 14:24:11;;;;;;;11.35;8.25;;;;;;;;;;6161638;23;20115;-82
2023/04/17 14:26:56;;;;;;;11.50;7.40;;;;;;;;;;6183915;23;20020;-84
2023/04/17 14:29:41;;;;;;;11.85;7.82;;;;;;;;;;6185674;23;20016;-84
2023/04/17 14:32:25;;;;;;;11.20;7.43;;;;;;;;;;6180986;23;20063;-86
2023/04/17 14:35:10;;;;;;;8.93;5.57;;;;;;;;;;6175156;23;20092;-84
2023/04/17 14:37:54;;;;;;;8.88;5.80;;;;;;;;;;6179596;23;20048;-84
2023/04/17 14:40:39;;;;;;;9.65;6.20;;;;;;;;;;6179391;23;20016;-83
2023/04/17 14:43:23;;;;;;;8.27;5.95;;;;;;;;;;6179610;23;20059;-85
2023/04/17 14:46:08;;;;;;;11.20;6.78;;;;;;;;;;6181217;23;20036;-84
2023/04/17 14:48:56;;;;;;;11.90;6.03;;;;;;;;;;6182623;23;20023;-86
2023/04/17 14:51:40;;;;;;;9.55;6.72;;;;;;;;;;6161743;23;20016;-83
2023/04/17 14:54:27;;;;;;;11.57;5.53;;;;;;;;;;6182762;23;20337;-88
2023/04/17 14:57:12;;;;;;;14.88;5.80;;;;;;;;;;6182099;23;20020;-83
2023/04/17 14:59:57;;;;;;;8.13;4.47;;;;;;;;;;6183357;23;20060;-85
2023/04/17 15:02:41;;;;;;;8.15;4.50;;;;;;;;;;6184640;23;20458;-83
2023/04/17 15:05:26;;;;;;;7.25;4.25;;;;;;;;;;6182840;23;20063;-84
2023/04/17 15:08:11;;;;;;;7.47;4.50;;;;;;;;;;6184857;23;20041;-83
2023/04/17 15:10:56;;;;;;;7.65;5.00;;;;;;;;;;6182196;23;20020;-85
2023/04/17 15:13:41;;;;;;;9.82;5.35;;;;;;;;;;6182508;23;20011;-83
2023/04/17 15:16:26;;;;;;;9.13;5.28;;;;;;;;;;6182626;23;20055;-83
2023/04/17 15:19:11;;;;;;;10.02;5.05;;;;;;;;;;6183300;23;20388;-83
2023/04/17 15:21:55;;;;;;;9.85;5.70;;;;;;;;;;6183784;23;20462;-86
2023/04/17 15:24:40;;;;;;;7.68;4.68;;;;;;;;;;6182585;23;20027;-83
2023/04/17 15:27:24;;;;;;;8.48;4.95;;;;;;;;;;6184116;23;20355;-83
2023/04/17 15:30:10;;;;;;;9.60;5.35;;;;;;;;;;6183459;23;20021;-84
2023/04/17 15:32:55;;;;;;;8.88;4.80;;;;;;;;;;6184413;23;20024;-84
2023/04/17 15:35:39;;;;;;;6.90;4.28;;;;;;;;;;6183742;23;20113;-84
2023/04/17 15:38:25;;;;;;;6.88;4.07;;;;;;;;;;6182649;23;20439;-84
2023/04/17 15:41:09;;;;;;;7.70;4.80;;;;;;;;;;6183056;23;20017;-84
2023/04/17 15:43:54;;;;;;;8.20;4.65;;;;;;;;;;6182705;23;20520;-85
2023/04/17 15:46:38;;;;;;;8.88;4.18;;;;;;;;;;6161427;23;20099;-84
2023/04/17 15:49:23;;;;;;;8.57;3.70;;;;;;;;;;6183246;23;20063;-84
2023/04/17 15:52:08;;;;;;;6.63;3.85;;;;;;;;;;6181944;23;20020;-84
2023/04/17 15:54:52;;;;;;;10.20;5.80;;;;;;;;;;6182301;23;20101;-84
2023/04/17 15:57:37;;;;;;;10.73;5.57;;;;;;;;;;6161898;23;20020;-83
2023/04/17 16:00:22;;;;;;;13.18;5.15;;;;;;;;;;6182982;23;20394;-84
2023/04/17 16:03:06;;;;;;;8.88;5.07;;;;;;;;;;6160636;23;20416;-83
2023/04/17 16:05:51;;;;;;;8.52;5.38;;;;;;;;;;6182361;23;20071;-83
2023/04/17 16:08:35;;;;;;;8.88;5.50;;;;;;;;;;6183431;23;20039;-83